Time;durP1;ratioP1;P1;durP2;ratioP2;P2;SDS_P1;SDS_P2;PMS_P1;PMS_P2;Temp;Humidity;BMP_temperature;BMP_pressure;BME280_temperature;BME280_humidity;BME280_pressure;Samples;Min_cycle;Max_cycle;Signal;HPM_P1;HPM_P2
2023/12/06 00:00:22;;;;;;;;;18.25;16.75;;;;;8.08;81.31;100729.84;5083513;28;45984;-82
2023/12/06 00:02:49;;;;;;;;;19.50;13.25;;;;;7.90;82.16;100723.53;5079792;27;45411;-83
2023/12/06 00:05:15;;;;;;;;;18.00;18.00;;;;;8.01;82.39;100725.72;5076230;28;45730;-83
2023/12/06 00:07:40;;;;;;;;;18.50;13.50;;;;;7.97;82.32;100719.72;5077955;28;45468;-81
2023/12/06 00:10:06;;;;;;;;;18.00;16.00;;;;;8.07;82.33;100739.56;5075260;28;47896;-81
2023/12/06 00:12:31;;;;;;;;;18.00;16.75;;;;;7.99;82.04;100737.25;5079986;28;45629;-85
2023/12/06 00:14:56;;;;;;;;;19.00;17.25;;;;;7.87;82.46;100736.91;5078669;28;45579;-82
2023/12/06 00:17:25;;;;;;;;;21.00;17.75;;;;;7.76;82.86;100728.56;5078379;28;45552;-84
2023/12/06 00:19:50;;;;;;;;;20.25;16.25;;;;;7.81;82.54;100738.06;5078013;28;46325;-84
2023/12/06 00:22:15;;;;;;;;;23.50;16.75;;;;;7.68;82.81;100719.19;5080391;28;45480;-84
2023/12/06 00:24:41;;;;;;;;;16.75;16.75;;;;;7.82;82.85;100741.56;5079301;28;45523;-85
2023/12/06 00:27:06;;;;;;;;;19.75;17.00;;;;;7.87;82.21;100744.84;5076301;28;46850;-85
2023/12/06 00:29:31;;;;;;;;;17.25;17.25;;;;;7.93;82.33;100736.63;5077595;28;45921;-81
2023/12/06 00:31:58;;;;;;;;;15.75;13.25;;;;;7.98;81.52;100742.63;5075145;28;52690;-89
2023/12/06 00:34:23;;;;;;;;;22.25;17.25;;;;;7.98;81.63;100743.47;5080073;28;45564;-90
2023/12/06 00:36:49;;;;;;;;;16.00;16.00;;;;;7.98;82.05;100743.47;5077100;28;50438;-88
2023/12/06 00:39:14;;;;;;;;;13.25;11.75;;;;;8.02;81.91;100743.34;5077835;28;45507;-88
2023/12/06 00:41:41;;;;;;;;;20.25;12.75;;;;;8.02;80.87;100732.75;5075608;28;45554;-90
2023/12/06 00:44:07;;;;;;;;;17.00;14.75;;;;;8.11;81.55;100759.72;5078606;28;45285;-87
2023/12/06 00:46:33;;;;;;;;;14.25;11.75;;;;;8.10;81.02;100741.22;5077998;28;45679;-89
2023/12/06 00:49:00;;;;;;;;;17.75;16.25;;;;;8.07;81.31;100758.09;5081708;28;47050;-86
2023/12/06 00:51:27;;;;;;;;;15.25;13.75;;;;;8.09;81.01;100753.63;5087860;28;45442;-85
2023/12/06 00:53:52;;;;;;;;;11.75;11.00;;;;;8.05;80.73;100743.19;5085585;28;46702;-87
2023/12/06 00:56:18;;;;;;;;;13.00;9.25;;;;;8.12;81.01;100758.78;5085603;28;45675;-87
2023/12/06 00:58:43;;;;;;;;;16.75;12.75;;;;;8.14;80.76;100759.56;5084737;28;45037;-90
2023/12/06 01:01:10;;;;;;;;;16.25;14.00;;;;;8.16;80.67;100770.94;5081290;28;52538;-86
2023/12/06 01:03:35;;;;;;;;;16.25;13.00;;;;;8.10;80.46;100751.81;5086483;28;45516;-91
2023/12/06 01:06:00;;;;;;;;;12.75;12.50;;;;;8.26;80.19;100769.63;5083491;28;61903;-82
2023/12/06 01:08:26;;;;;;;;;14.75;11.50;;;;;8.15;79.47;100771.88;5078977;28;56156;-85
2023/12/06 01:10:51;;;;;;;;;14.25;11.75;;;;;8.11;79.44;100772.94;5079425;27;59886;-81
2023/12/06 01:13:18;;;;;;;;;13.75;13.75;;;;;8.02;80.45;100770.69;5077251;28;45514;-85
2023/12/06 01:15:44;;;;;;;;;16.75;15.50;;;;;8.00;80.08;100769.91;5064780;28;45639;-85
2023/12/06 01:18:09;;;;;;;;;11.25;10.00;;;;;8.02;80.69;100781.28;5064050;28;47772;-83
2023/12/06 01:20:38;;;;;;;;;12.50;11.75;;;;;7.99;80.58;100781.41;5065888;28;45548;-85
2023/12/06 01:23:03;;;;;;;;;13.00;13.00;;;;;7.86;80.40;100770.47;5076554;28;45570;-81
2023/12/06 01:25:30;;;;;;;;;17.25;12.00;;;;;7.89;80.98;100786.22;5074901;28;45464;-83
2023/12/06 01:27:55;;;;;;;;;12.50;12.50;;;;;7.84;80.83;100772.34;5076323;28;48065;-84
2023/12/06 01:30:20;;;;;;;;;11.00;11.00;;;;;7.77;81.38;100777.94;5074239;28;45582;-81
2023/12/06 01:32:46;;;;;;;;;10.00;10.00;;;;;7.70;82.13;100790.59;5077773;28;45429;-92
2023/12/06 01:35:11;;;;;;;;;11.00;11.00;;;;;7.60;82.48;100792.72;5079085;28;45425;-89
2023/12/06 01:37:36;;;;;;;;;17.50;14.75;;;;;7.52;83.06;100792.16;5070300;28;45647;-85
2023/12/06 01:40:04;;;;;;;;;13.00;13.00;;;;;7.44;83.02;100789.00;5080499;28;53054;-88
2023/12/06 01:42:30;;;;;;;;;11.75;10.75;;;;;7.36;83.56;100809.59;5070993;28;46756;-85
2023/12/06 01:44:55;;;;;;;;;18.75;11.50;;;;;7.24;84.15;100804.78;5081055;28;46612;-85
2023/12/06 01:47:22;;;;;;;;;11.75;9.25;;;;;7.15;84.54;100805.97;5076201;28;57068;-88
2023/12/06 01:49:49;;;;;;;;;13.75;13.25;;;;;7.18;84.23;100807.66;5077580;28;45554;-86
2023/12/06 01:52:15;;;;;;;;;13.25;13.25;;;;;7.03;84.82;100799.41;5077622;28;45496;-87
2023/12/06 01:54:40;;;;;;;;;14.25;11.00;;;;;6.99;85.10;100803.06;5067204;27;45637;-84
2023/12/06 01:57:06;;;;;;;;;11.00;10.75;;;;;6.97;84.90;100814.63;5078596;28;45601;-86
2023/12/06 01:59:32;;;;;;;;;17.50;14.00;;;;;6.96;85.82;100815.53;5079576;27;45624;-87
2023/12/06 02:01:58;;;;;;;;;16.50;12.00;;;;;7.06;84.82;100830.16;5082192;28;45522;-81
2023/12/06 02:04:25;;;;;;;;;13.00;12.25;;;;;7.14;84.95;100836.00;5083797;28;45321;-85
2023/12/06 02:06:51;;;;;;;;;18.75;14.75;;;;;7.23;84.54;100830.38;5082790;28;46050;-85
2023/12/06 02:09:17;;;;;;;;;15.25;14.75;;;;;7.24;84.50;100839.16;5091433;28;46731;-82
2023/12/06 02:11:43;;;;;;;;;11.75;9.75;;;;;7.25;84.62;100832.94;5087044;28;45243;-83
2023/12/06 02:14:08;;;;;;;;;12.75;12.00;;;;;7.36;84.12;100849.28;5086511;28;45956;-82
2023/12/06 02:16:34;;;;;;;;;12.50;11.00;;;;;7.36;83.84;100843.97;5085138;28;45350;-86
2023/12/06 02:19:00;;;;;;;;;20.00;14.50;;;;;7.38;83.69;100848.28;5084286;27;45552;-85
2023/12/06 02:21:26;;;;;;;;;12.75;10.75;;;;;7.42;83.92;100854.31;5090838;27;45543;-81
2023/12/06 02:23:55;;;;;;;;;12.00;12.00;;;;;7.40;83.78;100849.09;5092119;28;45351;-81
2023/12/06 02:26:22;;;;;;;;;12.00;6.50;;;;;7.38;83.53;100844.78;5092853;28;46180;-86
2023/12/06 02:28:55;;;;;;;;;12.00;10.50;;;;;7.37;83.54;100853.63;5085596;28;45428;-88
2023/12/06 02:31:20;;;;;;;;;12.25;11.75;;;;;7.25;84.04;100830.31;5080814;28;45445;-82
2023/12/06 02:33:47;;;;;;;;;8.00;8.00;;;;;7.36;82.97;100854.56;5085373;28;45360;-86
2023/12/06 02:36:13;;;;;;;;;12.00;10.25;;;;;7.43;82.99;100857.84;5084456;27;48544;-88
2023/12/06 02:38:40;;;;;;;;;18.00;14.25;;;;;7.42;82.37;100856.97;5083632;28;45477;-82
2023/12/06 02:41:09;;;;;;;;;18.00;16.75;;;;;7.33;83.30;100860.84;5082249;28;45494;-83
2023/12/06 02:43:36;;;;;;;;;12.75;12.75;;;;;7.25;83.31;100854.97;5081326;28;45514;-82
2023/12/06 02:46:02;;;;;;;;;14.75;13.50;;;;;7.31;83.34;100867.13;5075678;28;46510;-86
2023/12/06 02:48:29;;;;;;;;;13.50;13.50;;;;;7.19;83.38;100857.88;5067917;28;46724;-80
2023/12/06 02:50:54;;;;;;;;;16.00;12.75;;;;;7.22;83.30;100868.31;5077937;28;45594;-81
2023/12/06 02:53:19;;;;;;;;;18.50;15.00;;;;;7.28;82.87;100868.06;5078874;28;44890;-81
2023/12/06 02:55:45;;;;;;;;;17.50;16.50;;;;;7.23;83.16;100869.19;5044475;28;46078;-81
2023/12/06 02:58:13;;;;;;;;;18.00;14.50;;;;;7.19;83.74;100871.09;5076861;28;45481;-84
2023/12/06 03:00:38;;;;;;;;;18.75;16.00;;;;;7.13;83.54;100873.09;5077079;28;45412;-82
2023/12/06 03:03:03;;;;;;;;;13.25;12.75;;;;;7.06;83.40;100878.63;5076118;28;45741;-84
2023/12/06 03:05:29;;;;;;;;;17.00;14.00;;;;;6.99;83.89;100866.53;5094061;28;64534;-82
2023/12/06 03:07:54;;;;;;;;;15.25;14.75;;;;;6.89;84.41;100866.91;5084910;28;45870;-89
2023/12/06 03:10:19;;;;;;;;;18.75;15.25;;;;;6.95;84.35;100891.38;5092963;28;49140;-92
2023/12/06 03:12:44;;;;;;;;;16.75;15.50;;;;;7.04;84.32;100883.09;5094428;28;45499;-84
2023/12/06 03:15:10;;;;;;;;;9.75;9.00;;;;;6.98;84.23;100870.09;5065377;28;47239;-86
2023/12/06 03:17:35;;;;;;;;;15.25;13.75;;;;;7.00;84.10;100873.53;5086670;28;46039;-88
2023/12/06 03:20:00;;;;;;;;;15.50;15.50;;;;;7.04;83.89;100887.53;5094592;28;45330;-88
2023/12/06 03:22:26;;;;;;;;;15.00;15.00;;;;;7.01;83.98;100874.41;5093765;28;45446;-81
2023/12/06 03:24:51;;;;;;;;;17.00;16.50;;;;;7.00;84.02;100872.69;5091082;28;55564;-87
2023/12/06 03:27:16;;;;;;;;;16.25;14.50;;;;;7.02;84.54;100876.97;5089620;28;46212;-86
2023/12/06 03:29:42;;;;;;;;;18.00;17.00;;;;;7.03;84.06;100870.81;5085593;27;46213;-92
2023/12/06 03:32:07;;;;;;;;;13.00;10.00;;;;;6.99;83.86;100871.81;5079636;28;45604;-84
2023/12/06 03:34:32;;;;;;;;;16.00;14.50;;;;;6.89;84.57;100854.56;5079129;28;46309;-89
2023/12/06 03:36:58;;;;;;;;;20.00;15.00;;;;;6.99;83.88;100861.25;5082000;28;45829;-81
2023/12/06 03:39:24;;;;;;;;;18.00;15.25;;;;;6.99;83.60;100855.94;5081227;27;46345;-89
2023/12/06 03:41:49;;;;;;;;;13.75;11.75;;;;;6.94;83.80;100842.03;5071108;28;45569;-90
2023/12/06 03:44:15;;;;;;;;;18.25;14.50;;;;;7.05;83.60;100855.75;5083740;28;45507;-88
2023/12/06 03:46:40;;;;;;;;;19.50;15.75;;;;;7.03;83.22;100854.03;5078690;28;46001;-87
2023/12/06 03:49:05;;;;;;;;;16.00;11.50;;;;;6.98;83.23;100848.06;5081996;28;45484;-87
2023/12/06 03:51:31;;;;;;;;;19.75;16.50;;;;;6.92;83.28;100841.25;5080367;28;45721;-92
2023/12/06 03:53:56;;;;;;;;;18.00;15.25;;;;;6.95;83.43;100854.34;5080477;27;45509;-86
2023/12/06 03:56:21;;;;;;;;;19.75;18.25;;;;;6.85;83.88;100857.38;5079038;28;45540;-90
2023/12/06 03:58:47;;;;;;;;;17.25;15.00;;;;;6.77;84.86;100839.13;5076720;28;45840;-89
2023/12/06 04:01:12;;;;;;;;;16.00;14.25;;;;;6.79;83.83;100842.63;5077335;28;45557;-90
2023/12/06 04:03:42;;;;;;;;;14.25;12.25;;;;;6.87;84.35;100852.88;5065395;28;48619;-86
2023/12/06 04:06:07;;;;;;;;;25.00;16.00;;;;;6.92;83.59;100858.91;5079336;27;45518;-87
2023/12/06 04:08:33;;;;;;;;;16.50;15.00;;;;;6.95;83.35;100859.63;5080581;28;45478;-84
2023/12/06 04:10:58;;;;;;;;;18.00;18.00;;;;;6.95;83.93;100856.13;5082773;28;45669;-83
2023/12/06 04:13:23;;;;;;;;;18.25;14.25;;;;;7.00;83.18;100862.97;5083550;28;45781;-83
2023/12/06 04:15:49;;;;;;;;;15.50;15.00;;;;;6.97;83.06;100852.50;5086650;27;45575;-83
2023/12/06 04:18:14;;;;;;;;;15.50;12.75;;;;;6.95;83.02;100864.91;5084038;28;62415;-86
2023/12/06 04:20:39;;;;;;;;;21.00;16.00;;;;;6.94;82.75;100862.34;5083842;28;45568;-83
2023/12/06 04:23:05;;;;;;;;;18.75;14.00;;;;;6.93;82.55;100864.13;5078003;27;45694;-86
2023/12/06 04:25:30;;;;;;;;;18.25;16.00;;;;;6.88;83.22;100865.19;5077170;28;52736;-84
2023/12/06 04:27:55;;;;;;;;;20.00;16.75;;;;;6.88;83.13;100870.47;5079810;28;45480;-86
2023/12/06 04:30:20;;;;;;;;;17.50;13.00;;;;;6.94;83.07;100867.63;5081348;28;45774;-87
2023/12/06 04:32:46;;;;;;;;;14.50;14.50;;;;;6.99;82.97;100877.09;5084655;28;50467;-91
2023/12/06 04:35:11;;;;;;;;;16.50;16.50;;;;;6.95;82.17;100859.63;5082410;28;49559;-89
2023/12/06 04:37:36;;;;;;;;;18.00;13.75;;;;;7.00;81.96;100862.97;5082930;28;45479;-88
2023/12/06 04:40:04;;;;;;;;;16.00;13.00;;;;;6.99;81.89;100871.81;5081954;28;44979;-90
2023/12/06 04:42:29;;;;;;;;;15.50;12.50;;;;;6.85;82.31;100852.94;5070199;28;48265;-89
2023/12/06 04:44:54;;;;;;;;;17.75;15.00;;;;;6.97;82.38;100871.00;5079567;28;50208;-92
2023/12/06 04:47:20;;;;;;;;;14.75;11.25;;;;;6.90;82.09;100872.16;5077511;28;45396;-86
2023/12/06 04:49:45;;;;;;;;;20.50;14.50;;;;;6.93;81.87;100881.78;5077287;28;45455;-88
2023/12/06 04:52:10;;;;;;;;;15.25;13.75;;;;;6.92;82.82;100885.34;5077543;28;46604;-89
2023/12/06 04:54:36;;;;;;;;;15.00;13.25;;;;;6.80;82.45;100870.78;5077280;28;45534;-87
2023/12/06 04:57:01;;;;;;;;;12.75;11.00;;;;;6.86;82.63;100889.03;5082771;28;45366;-91
2023/12/06 04:59:26;;;;;;;;;14.00;13.75;;;;;6.79;82.37;100884.91;5078554;27;46815;-87
2023/12/06 05:01:53;;;;;;;;;11.50;11.50;;;;;6.79;82.15;100895.47;5083269;27;45308;-91
2023/12/06 05:04:19;;;;;;;;;14.50;14.50;;;;;6.79;82.99;100906.91;5083622;28;45349;-87
2023/12/06 05:06:44;;;;;;;;;16.25;13.00;;;;;6.65;81.99;100887.19;5065489;28;45556;-89
2023/12/06 05:09:10;;;;;;;;;15.75;14.25;;;;;6.65;82.84;100906.53;5082581;27;56599;-85
2023/12/06 05:11:35;;;;;;;;;10.75;10.75;;;;;6.62;82.69;100906.63;5063500;28;48333;-87
2023/12/06 05:14:02;;;;;;;;;8.75;7.25;;;;;6.63;82.87;100920.69;5075405;28;45501;-89
2023/12/06 05:16:28;;;;;;;;;10.25;10.00;;;;;6.59;83.33;100919.94;5072479;28;45503;-83
2023/12/06 05:18:53;;;;;;;;;11.50;11.00;;;;;6.54;83.08;100916.63;5082619;28;45390;-85
2023/12/06 05:21:18;;;;;;;;;19.25;14.00;;;;;6.56;83.22;100920.06;5081465;28;55613;-85
2023/12/06 05:23:43;;;;;;;;;17.00;12.25;;;;;6.52;83.87;100920.22;5081204;28;63403;-85
2023/12/06 05:26:09;;;;;;;;;12.00;10.75;;;;;6.51;83.08;100916.72;5080090;28;52914;-81
2023/12/06 05:28:34;;;;;;;;;12.75;10.25;;;;;6.54;83.29;100921.03;5066259;28;48203;-88
2023/12/06 05:30:59;;;;;;;;;18.00;15.00;;;;;6.53;82.95;100919.31;5082476;28;45486;-87
2023/12/06 05:33:25;;;;;;;;;14.50;12.75;;;;;6.56;83.44;100929.78;5084504;28;45484;-85
2023/12/06 05:35:50;;;;;;;;;11.25;9.25;;;;;6.54;83.07;100926.31;5071955;28;44841;-87
2023/12/06 05:38:15;;;;;;;;;18.00;15.75;;;;;6.61;82.92;100948.97;5077080;28;45540;-83
2023/12/06 05:40:41;;;;;;;;;10.25;9.25;;;;;6.65;82.78;100940.03;5075475;27;63670;-84
2023/12/06 05:43:07;;;;;;;;;10.25;10.25;;;;;6.68;82.72;100927.56;5074682;28;46692;-85
2023/12/06 05:45:32;;;;;;;;;10.75;9.25;;;;;6.75;82.09;100926.44;5077936;28;45562;-84
2023/12/06 05:47:57;;;;;;;;;14.75;10.50;;;;;6.76;81.45;100933.44;5081109;28;47357;-86
2023/12/06 05:50:22;;;;;;;;;13.25;11.25;;;;;6.72;81.86;100933.59;5078716;28;48623;-84
2023/12/06 05:52:49;;;;;;;;;14.50;11.00;;;;;6.74;82.30;100937.91;5081115;28;46094;-83
2023/12/06 05:55:16;;;;;;;;;22.75;14.25;;;;;6.69;81.49;100939.88;5068836;28;45501;-86
2023/12/06 05:57:41;;;;;;;;;25.75;17.75;;;;;6.61;82.40;100938.41;5068322;28;45532;-83
2023/12/06 06:00:12;;;;;;;;;29.25;21.00;;;;;6.61;82.32;100948.97;5082432;27;45416;-85
2023/12/06 06:02:38;;;;;;;;;39.25;37.25;;;;;6.58;82.04;100949.06;5076751;28;44934;-87
2023/12/06 06:05:04;;;;;;;;;43.00;39.00;;;;;6.71;82.55;100958.31;5076485;28;45455;-83
2023/12/06 06:07:29;;;;;;;;;39.25;37.75;;;;;6.74;82.31;100961.72;5077905;28;45338;-87
2023/12/06 06:09:54;;;;;;;;;28.50;20.25;;;;;6.72;81.77;100949.47;5074110;28;45615;-87
2023/12/06 06:12:20;;;;;;;;;19.00;17.25;;;;;6.77;81.40;100956.34;5074990;28;45504;-81
2023/12/06 06:14:45;;;;;;;;;15.25;11.50;;;;;6.82;81.53;100963.25;5078040;27;46967;-81
2023/12/06 06:17:11;;;;;;;;;13.75;10.50;;;;;6.79;81.36;100972.16;5079406;28;45371;-82
2023/12/06 06:19:36;;;;;;;;;11.00;10.75;;;;;6.80;80.92;100965.94;5079543;28;58619;-81
2023/12/06 06:22:01;;;;;;;;;11.75;10.25;;;;;6.77;81.29;100963.38;5081222;28;53165;-83
2023/12/06 06:24:27;;;;;;;;;14.25;10.25;;;;;6.80;81.43;100966.81;5082298;28;45684;-81
2023/12/06 06:26:52;;;;;;;;;11.75;8.50;;;;;6.83;81.75;100965.81;5081131;28;45857;-80
2023/12/06 06:29:18;;;;;;;;;10.25;7.50;;;;;6.83;81.47;100955.25;5080709;27;60530;-82
2023/12/06 06:31:43;;;;;;;;;9.50;9.00;;;;;6.89;81.31;100967.38;5078027;28;45355;-82
2023/12/06 06:34:08;;;;;;;;;24.25;20.50;;;;;6.83;81.13;100971.13;5078251;28;45360;-81
2023/12/06 06:36:36;;;;;;;;;7.50;6.00;;;;;6.73;81.60;100975.84;5079447;28;45363;-80
2023/12/06 06:39:01;;;;;;;;;13.50;9.00;;;;;6.57;81.53;100976.41;5082650;28;46921;-83
2023/12/06 06:41:27;;;;;;;;;18.25;12.75;;;;;6.54;82.84;100981.81;5079551;27;45283;-84
2023/12/06 06:43:52;;;;;;;;;13.25;11.00;;;;;6.49;82.89;100993.38;5079465;28;45307;-87
2023/12/06 06:46:17;;;;;;;;;15.50;10.75;;;;;6.37;83.33;100988.50;5083387;28;45657;-91
2023/12/06 06:48:43;;;;;;;;;9.00;9.00;;;;;6.41;83.20;101000.72;5088051;28;45378;-89
2023/12/06 06:51:09;;;;;;;;;10.50;10.50;;;;;6.36;83.02;101001.75;5091104;27;45321;-84
2023/12/06 06:53:34;;;;;;;;;14.00;11.25;;;;;6.27;84.35;101007.34;5081540;27;45355;-81
2023/12/06 06:56:00;;;;;;;;;10.00;10.00;;;;;6.31;84.30;101012.47;5084685;27;45424;-81
2023/12/06 06:58:28;;;;;;;;;12.50;7.75;;;;;6.35;83.13;101016.75;5090795;28;47477;-85
2023/12/06 07:00:54;;;;;;;;;17.75;11.00;;;;;6.36;83.17;101023.75;5083708;27;45633;-85
2023/12/06 07:03:20;;;;;;;;;14.25;13.50;;;;;6.34;84.33;101007.09;5089569;27;45434;-87
2023/12/06 07:05:47;;;;;;;;;11.75;11.50;;;;;6.34;83.04;101009.72;5090639;28;45276;-87
2023/12/06 07:08:12;;;;;;;;;14.25;11.75;;;;;6.35;83.44;101026.44;5086023;28;45304;-81
2023/12/06 07:10:38;;;;;;;;;17.00;14.25;;;;;6.35;83.82;101022.03;5083420;28;44701;-82
2023/12/06 07:13:04;;;;;;;;;17.75;13.25;;;;;6.41;83.10;101015.69;5081731;27;45417;-81
2023/12/06 07:15:29;;;;;;;;;15.00;11.25;;;;;6.42;82.68;101023.56;5075418;28;45429;-82
2023/12/06 07:17:55;;;;;;;;;11.75;10.00;;;;;6.31;83.74;101001.91;5088772;27;48629;-84
2023/12/06 07:20:21;;;;;;;;;15.50;14.25;;;;;6.46;84.02;101034.91;5067797;27;45445;-83
2023/12/06 07:22:46;;;;;;;;;12.25;12.25;;;;;6.34;83.05;101035.28;5072231;28;45381;-83
2023/12/06 07:25:15;;;;;;;;;22.25;16.00;;;;;6.40;83.47;101054.47;5072124;28;45390;-85
2023/12/06 07:27:44;;;;;;;;;19.25;15.25;;;;;6.23;84.14;101027.69;5089010;28;45314;-83
2023/12/06 07:30:10;;;;;;;;;17.50;13.75;;;;;6.41;83.60;101060.59;5088334;28;45481;-90
2023/12/06 07:32:36;;;;;;;;;15.50;14.75;;;;;6.38;83.82;101056.28;5076471;27;44959;-81
2023/12/06 07:35:03;;;;;;;;;11.50;11.25;;;;;6.46;83.55;101061.31;5086153;27;45513;-87
2023/12/06 07:37:28;;;;;;;;;14.00;12.00;;;;;6.41;83.34;101056.19;5091258;27;47056;-85
2023/12/06 07:39:54;;;;;;;;;19.00;15.00;;;;;6.50;83.06;101057.66;5060334;28;45520;-86
2023/12/06 07:42:20;;;;;;;;;16.75;13.00;;;;;6.53;82.97;101068.16;5080134;27;45377;-87
2023/12/06 07:44:46;;;;;;;;;16.50;16.50;;;;;6.36;83.36;101034.31;5088509;28;45573;-84
2023/12/06 07:47:11;;;;;;;;;19.50;15.25;;;;;6.47;82.78;101055.13;5100111;27;46821;-84
2023/12/06 07:49:37;;;;;;;;;16.75;13.75;;;;;6.32;83.22;101022.13;5068452;28;45952;-89
2023/12/06 07:52:02;;;;;;;;;22.00;19.00;;;;;6.50;83.12;101063.81;5086544;27;45407;-88
2023/12/06 07:54:28;;;;;;;;;16.00;14.00;;;;;6.51;82.93;101059.41;5089063;27;45547;-89
2023/12/06 07:56:53;;;;;;;;;18.00;12.25;;;;;6.55;82.78;101065.47;5084780;27;51813;-88
2023/12/06 07:59:19;;;;;;;;;13.50;10.25;;;;;6.43;83.24;101046.44;5083854;27;45435;-91
2023/12/06 08:01:44;;;;;;;;;10.50;8.50;;;;;6.47;82.77;101079.75;5085423;27;45349;-87
2023/12/06 08:04:10;;;;;;;;;9.25;9.25;;;;;6.45;82.54;101080.72;5081045;27;44905;-85
2023/12/06 08:06:36;;;;;;;;;12.50;11.25;;;;;6.33;82.80;101060.84;5085179;27;45437;-89
2023/12/06 08:09:02;;;;;;;;;15.25;15.00;;;;;6.55;82.55;101087.47;5068334;28;46025;-84
2023/12/06 08:11:27;;;;;;;;;14.50;14.00;;;;;6.63;82.97;101088.06;5087866;27;45469;-84
2023/12/06 08:13:52;;;;;;;;;11.75;10.50;;;;;6.57;82.44;101079.47;5079332;28;45348;-83
2023/12/06 08:16:18;;;;;;;;;15.00;12.50;;;;;6.63;82.95;101093.34;5074703;27;46069;-87
2023/12/06 08:18:43;;;;;;;;;17.00;15.75;;;;;6.58;82.82;101086.50;5065946;28;45765;-85
2023/12/06 08:21:08;;;;;;;;;15.25;14.00;;;;;6.57;83.29;101083.00;5090164;27;50037;-87
2023/12/06 08:23:34;;;;;;;;;12.75;12.75;;;;;6.65;82.25;101096.84;5093119;27;45526;-82
2023/12/06 08:26:00;;;;;;;;;17.00;13.00;;;;;6.71;82.62;101098.41;5079635;27;45373;-85
2023/12/06 08:28:26;;;;;;;;;9.75;9.75;;;;;6.79;81.65;101091.97;5092631;27;45322;-88
2023/12/06 08:30:51;;;;;;;;;15.50;14.00;;;;;6.65;80.97;101077.47;5082993;27;45355;-87
2023/12/06 08:33:19;;;;;;;;;19.75;15.50;;;;;6.79;81.57;101094.59;5086997;27;45243;-89
2023/12/06 08:35:44;;;;;;;;;13.75;12.00;;;;;6.87;81.64;101104.06;5096401;27;45906;-83
2023/12/06 08:38:09;;;;;;;;;12.00;12.00;;;;;6.93;81.20;101109.16;5083467;27;45375;-82
2023/12/06 08:40:35;;;;;;;;;14.00;14.00;;;;;6.97;80.58;101110.78;5096944;27;61767;-86
2023/12/06 08:43:00;;;;;;;;;15.25;11.75;;;;;6.98;80.63;101102.78;5072577;27;45601;-82
2023/12/06 08:45:26;;;;;;;;;21.00;13.75;;;;;7.00;80.02;101106.25;5079205;27;45808;-82
2023/12/06 08:47:51;;;;;;;;;15.75;13.75;;;;;6.97;80.66;101101.06;5097821;27;45406;-88
2023/12/06 08:50:17;;;;;;;;;12.50;12.50;;;;;7.02;80.21;101099.13;5086501;27;45351;-88
2023/12/06 08:52:45;;;;;;;;;17.75;14.00;;;;;7.05;80.02;101104.31;5095068;27;54005;-86
2023/12/06 08:55:11;;;;;;;;;14.75;13.50;;;;;7.03;80.23;101111.47;5086472;27;46069;-89
2023/12/06 08:57:37;;;;;;;;;16.75;14.50;;;;;7.06;80.07;101110.47;5093776;27;45227;-85
2023/12/06 09:00:07;;;;;;;;;14.00;12.50;;;;;7.00;80.44;101102.72;5079548;27;45344;-87
2023/12/06 09:02:35;;;;;;;;;17.00;14.50;;;;;6.98;79.53;101101.94;5075747;27;45533;-84
2023/12/06 09:05:01;;;;;;;;;16.00;12.00;;;;;6.90;79.24;101090.72;5062104;28;45543;-86
2023/12/06 09:07:26;;;;;;;;;15.25;14.25;;;;;6.95;80.28;101105.53;5076942;27;46132;-84
2023/12/06 09:09:51;;;;;;;;;15.25;13.75;;;;;6.93;80.11;101114.44;5061646;27;45528;-84
2023/12/06 09:12:17;;;;;;;;;19.50;14.25;;;;;6.89;79.92;101094.28;5075206;27;45577;-86
2023/12/06 09:14:43;;;;;;;;;13.50;13.50;;;;;6.95;79.80;101099.38;5075968;27;53311;-83
2023/12/06 09:17:09;;;;;;;;;17.50;17.00;;;;;6.98;80.23;101105.44;5068074;28;44710;-88
2023/12/06 09:19:34;;;;;;;;;14.50;12.75;;;;;7.09;79.85;101098.00;5093164;27;45458;-87
2023/12/06 09:21:59;;;;;;;;;15.75;14.50;;;;;7.12;79.54;101104.09;5109080;27;45207;-84
2023/12/06 09:24:25;;;;;;;;;15.50;13.00;;;;;7.20;78.66;101096.78;5110759;27;45487;-91
2023/12/06 09:26:50;;;;;;;;;18.00;17.00;;;;;7.19;79.08;101092.41;5076106;28;45282;-87
2023/12/06 09:29:17;;;;;;;;;17.25;15.50;;;;;7.34;78.81;101118.34;5082829;27;45939;-88
2023/12/06 09:31:43;;;;;;;;;15.50;13.50;;;;;7.38;78.30;101118.19;5093875;27;44864;-84
2023/12/06 09:34:08;;;;;;;;;17.50;14.00;;;;;7.35;78.28;101106.84;5072220;27;46543;-84
2023/12/06 09:36:34;;;;;;;;;19.50;18.50;;;;;7.35;78.88;101120.06;5071341;28;45265;-84
2023/12/06 09:39:00;;;;;;;;;14.00;14.00;;;;;7.37;77.23;101102.34;5067238;27;45461;-83
2023/12/06 09:41:30;;;;;;;;;22.75;22.00;;;;;7.57;77.26;101113.13;5108499;27;45319;-88
2023/12/06 09:43:56;;;;;;;;;19.00;15.25;;;;;7.66;76.57;101107.47;5066385;27;47149;-85
2023/12/06 09:46:22;;;;;;;;;15.75;13.00;;;;;7.80;77.05;101119.34;5081085;27;45370;-83
2023/12/06 09:48:48;;;;;;;;;22.75;18.00;;;;;7.82;76.30;101107.81;5078285;27;45405;-82
2023/12/06 09:51:15;;;;;;;;;24.50;19.25;;;;;7.80;76.53;101099.03;5084908;27;45389;-85
2023/12/06 09:53:41;;;;;;;;;20.50;16.25;;;;;8.04;75.52;101118.47;5079528;27;48313;-90
2023/12/06 09:56:08;;;;;;;;;21.25;17.75;;;;;8.21;74.39;101126.66;5085719;27;45207;-85
2023/12/06 09:58:34;;;;;;;;;39.75;36.50;;;;;8.27;74.43;101131.72;5072759;27;45284;-84
2023/12/06 10:01:01;;;;;;;;;26.25;23.50;;;;;8.39;74.13;101129.56;5077969;28;45507;-87
2023/12/06 10:03:27;;;;;;;;;26.25;17.50;;;;;8.49;73.60;101138.91;5082832;27;45516;-86
2023/12/06 10:05:57;;;;;;;;;17.00;16.00;;;;;8.71;73.07;101136.25;5091994;27;45467;-86
2023/12/06 10:08:23;;;;;;;;;22.25;19.25;;;;;8.91;73.75;101144.28;5099442;27;45769;-89
2023/12/06 10:10:48;;;;;;;;;23.25;22.50;;;;;9.15;72.81;101129.16;5083313;28;45180;-83
2023/12/06 10:13:14;;;;;;;;;26.25;23.25;;;;;9.31;71.66;101122.28;5084472;27;46320;-88
2023/12/06 10:15:39;;;;;;;;;22.25;22.25;;;;;9.59;70.58;101134.34;5099680;27;56951;-89
2023/12/06 10:18:05;;;;;;;;;23.50;22.50;;;;;9.73;69.45;101138.13;5077858;27;45239;-85
2023/12/06 10:20:30;;;;;;;;;30.75;25.25;;;;;9.86;69.28;101140.25;5091008;27;45525;-82
2023/12/06 10:22:56;;;;;;;;;25.25;25.25;;;;;10.04;69.02;101140.31;5068915;27;48380;-84
2023/12/06 10:25:22;;;;;;;;;24.50;19.25;;;;;10.19;67.12;101143.22;5074594;27;45603;-85
2023/12/06 10:27:47;;;;;;;;;30.25;25.75;;;;;10.26;66.90;101128.72;5088247;27;45428;-87
2023/12/06 10:30:20;;;;;;;;;28.25;24.50;;;;;10.39;67.07;101129.88;5086261;27;45267;-85
2023/12/06 10:32:46;;;;;;;;;30.25;28.00;;;;;10.52;66.60;101135.47;5071977;27;46146;-86
2023/12/06 10:35:12;;;;;;;;;18.00;16.00;;;;;10.65;65.47;101125.97;5093104;27;45473;-85
2023/12/06 10:37:39;;;;;;;;;30.25;26.75;;;;;10.91;64.74;101140.69;5060918;28;45398;-86
2023/12/06 10:40:11;;;;;;;;;22.00;18.50;;;;;10.95;64.45;101136.97;5080349;27;45405;-84
2023/12/06 10:42:38;;;;;;;;;25.25;23.00;;;;;11.15;65.79;101123.50;5080016;27;45934;-88
2023/12/06 10:45:04;;;;;;;;;23.25;22.25;;;;;11.30;63.94;101123.69;5043905;28;45445;-87
2023/12/06 10:47:33;;;;;;;;;29.75;23.50;;;;;11.41;63.25;101116.88;5090936;27;45409;-85
2023/12/06 10:50:00;;;;;;;;;31.50;27.25;;;;;11.50;61.67;101110.22;5067319;27;45424;-85
2023/12/06 10:52:29;;;;;;;;;32.00;25.25;;;;;11.71;61.66;101119.75;5097675;27;45375;-90
2023/12/06 10:54:54;;;;;;;;;22.50;21.00;;;;;11.91;61.06;101123.22;5073011;27;45472;-87
2023/12/06 10:57:20;;;;;;;;;25.75;24.00;;;;;12.05;61.27;101123.34;5068244;27;45421;-88
2023/12/06 10:59:46;;;;;;;;;26.25;24.75;;;;;12.29;60.03;101124.66;5047063;28;45513;-88
2023/12/06 11:02:12;;;;;;;;;28.75;26.00;;;;;12.29;60.79;101092.66;5061185;27;46323;-86
2023/12/06 11:04:48;;;;;;;;;26.75;26.75;;;;;12.68;58.36;101118.94;5070203;27;45337;-87
2023/12/06 11:07:19;;;;;;;;;31.00;28.25;;;;;12.83;58.05;101116.34;5106812;27;46464;-82
2023/12/06 11:09:56;;;;;;;;;23.50;22.00;;;;;12.98;57.92;101110.13;5095190;27;45371;-82